Flight Track Log - Related Links

Times and Time Zones

All times are in EDT time to prevent confusion due to time zone crossing. See the SWA261 flight status page for this flight to view local times or setup timezone preferences in your user account.

Time Position Orientation Groundspeed Altitude Reporting Facility
EDT Latitude Longitude Course Direction KTS MPH feet Rate Location/Type
Sat 06:14:22 PM 28.4000 -81.3000 204° Southwest 163 188 500  Level Orlando TRACON
Sat 06:15:16 PM 28.3667 -81.3167 204° Southwest 198 228 2,100 2,158 Climbing Orlando TRACON
Sat 06:16:16 PM 28.3333 -81.3667 233° Southwest 236 272 4,600 2,479 Climbing Orlando TRACON
Sat 06:17:17 PM 28.3500 -81.4500 283° West 271 312 7,100 3,124 Climbing Orlando TRACON
Sat 06:18:17 PM 28.3667 -81.5333 283° West 274 315 10,900 2,652 Climbing Orlando TRACON
Sat 06:20:18 PM 28.3950 -81.7339 279° West 329 379 15,100 2,354 Climbing Jacksonville Center
Sat 06:21:18 PM 28.4086 -81.8447 278° West 351 404 18,000 2,700 Climbing Jacksonville Center
Sat 06:22:18 PM 28.4075 -81.9628 269° West 367 422 20,500 2,650 Climbing Jacksonville Center
Sat 06:23:18 PM 28.4042 -82.0856 268° West 378 435 23,300 2,500 Climbing Jacksonville Center
Sat 06:24:18 PM 28.4028 -82.2033 269° West 384 442 25,500 1,750 Climbing Jacksonville Center
Sat 06:25:18 PM 28.4033 -82.3261 270° West 384 442 26,800 1,400 Climbing Jacksonville Center
Sat 06:26:18 PM 28.4017 -82.4561 269° West 397 457 28,300 2,150 Climbing Jacksonville Center
Sat 06:27:18 PM 28.4189 -82.5928 278° West 408 470 31,100 2,500 Climbing Jacksonville Center
Sat 06:28:18 PM 28.4817 -82.6942 305° West 381 438 33,300 1,950 Climbing Jacksonville Center
Sat 06:29:18 PM 28.5464 -82.7886 308° West 381 438 35,000 1,450 Climbing Jacksonville Center
Sat 06:30:18 PM 28.6089 -82.8856 306° West 381 438 36,200 1,050 Climbing Jacksonville Center
Sat 06:31:18 PM 28.6694 -82.9778 307° West 381 438 37,100 900 Climbing Jacksonville Center
Sat 06:32:18 PM 28.7300 -83.0700 307° West 376 433 38,000 450 Climbing Jacksonville Center
Sat 06:33:18 PM 28.7925 -83.1697 306° West 376 433 38,000  Level Jacksonville Center
Sat 06:34:18 PM 28.8547 -83.2622 308° West 376 433 38,000  Level Jacksonville Center
Sat 06:35:18 PM 28.9150 -83.3575 306° West 376 433 38,000  Level Jacksonville Center
Sat 06:36:18 PM 28.9772 -83.4550 306° West 376 433 38,000  Level Jacksonville Center
Sat 06:37:18 PM 29.0372 -83.5456 307° West 376 433 38,000  Level Jacksonville Center
Sat 06:38:18 PM 29.0972 -83.6411 306° West 376 433 38,000  Level Jacksonville Center
Sat 06:39:18 PM 29.1572 -83.7342 306° West 376 433 38,000  Level Jacksonville Center
Sat 06:40:18 PM 29.2172 -83.8275 306° West 376 433 38,000  Level Jacksonville Center
Sat 06:41:18 PM 29.2792 -83.9211 307° West 371 427 38,000  Level Jacksonville Center
Sat 06:42:18 PM 29.3367 -84.0169 305° West 371 427 38,000  Level Jacksonville Center
Sat 06:43:18 PM 29.3986 -84.1106 307° West 371 427 38,000  Level Jacksonville Center
Sat 06:44:18 PM 29.4581 -84.2067 305° West 371 427 38,000  Level Jacksonville Center
Sat 06:45:18 PM 29.5197 -84.3031 306° West 371 427 38,000  Level Jacksonville Center
Sat 06:46:18 PM 29.5792 -84.3994 305° West 371 427 38,000  Level Jacksonville Center
Sat 06:47:18 PM 29.6406 -84.4936 307° West 371 427 38,000  Level Jacksonville Center
Sat 06:48:18 PM 29.7000 -84.5878 306° West 371 427 38,000  Level Jacksonville Center
Sat 06:49:18 PM 29.7592 -84.6844 305° West 371 427 38,000  Level Jacksonville Center
Sat 06:50:18 PM 29.8183 -84.7814 305° West 371 427 38,000  Level Jacksonville Center
Sat 06:51:18 PM 29.8775 -84.8758 306° West 371 427 38,000  Level Jacksonville Center
Sat 06:52:18 PM 29.9364 -84.9706 306° West 371 427 38,000  Level Jacksonville Center
Sat 06:53:18 PM 29.9975 -85.0656 307° West 371 427 38,000  Level Jacksonville Center
Sat 06:54:18 PM 30.0564 -85.1628 305° West 366 421 38,000  Level Jacksonville Center
Sat 06:55:18 PM 30.1153 -85.2578 306° West 366 421 38,000  Level Jacksonville Center
Sat 06:56:18 PM 30.1739 -85.3506 306° West 361 415 38,000  Level Jacksonville Center
Sat 06:57:18 PM 30.2264 -85.4383 305° West 361 415 38,000  Level Jacksonville Center
Sat 06:58:18 PM 30.2933 -85.5436 306° West 361 415 38,000  Level Jacksonville Center
Sat 06:59:18 PM 30.3458 -85.6294 305° West 361 415 38,000  Level Jacksonville Center
Sat 07:00:18 PM 30.4022 -85.7225 305° West 354 407 38,000  Level Jacksonville Center
Sat 07:01:18 PM 30.4606 -85.8181 305° West 361 415 38,000  Level Jacksonville Center
Sat 07:02:18 PM 30.5189 -85.9139 305° West 366 421 38,000  Level Jacksonville Center
Sat 07:03:18 PM 30.5769 -86.0100 305° West 366 421 38,000  Level Jacksonville Center
Sat 07:04:18 PM 30.6311 -86.1011 305° West 361 415 38,000  Level Jacksonville Center
Sat 07:05:18 PM 30.6892 -86.1947 306° West 361 415 38,000  Level Jacksonville Center
Sat 07:06:18 PM 30.7453 -86.2886 305° West 361 415 38,000  Level Jacksonville Center
Sat 07:07:18 PM 30.8011 -86.3847 304° West 361 415 38,000  Level Jacksonville Center
Sat 07:08:18 PM 30.8569 -86.4789 305° West 361 415 38,000  Level Jacksonville Center
Sat 07:09:18 PM 30.9169 -86.5756 306° West 361 415 38,000  Level Jacksonville Center
Sat 07:10:18 PM 30.9747 -86.6675 306° West 361 415 38,000  Level Jacksonville Center
Sat 07:12:12 PM 31.0853 -86.8603 304° West 360 414 38,000  Level Memphis Center
Sat 07:13:14 PM 31.1428 -86.9569 305° West 361 415 38,000  Level Memphis Center
Sat 07:14:16 PM 31.2000 -87.0539 305° West 362 417 38,000  Level Memphis Center
Sat 07:15:17 PM 31.2567 -87.1503 305° West 362 417 38,000  Level Memphis Center
Sat 07:16:19 PM 31.3125 -87.2467 304° West 362 417 38,000  Level Memphis Center
Sat 07:17:21 PM 31.3683 -87.3411 305° West 360 414 38,000  Level Memphis Center
Sat 07:18:22 PM 31.4356 -87.4564 304° West 360 414 38,000  Level Memphis Center
Sat 07:19:24 PM 31.4919 -87.5511 305° West 359 413 38,000  Level Memphis Center
Sat 07:20:34 PM 31.5597 -87.6675 304° West 373 429 38,000  Level Atlanta Center
Sat 07:22:28 PM 31.6564 -87.8344 304° West 354 407 38,000  Level Memphis Center
Sat 07:23:30 PM 31.7092 -87.9286 303° West 351 404 38,000  Level Memphis Center
Sat 07:24:31 PM 31.7747 -88.0414 304° West 351 404 38,000  Level Memphis Center
Sat 07:25:33 PM 31.8289 -88.1358 304° West 351 404 38,000  Level Memphis Center
Sat 07:26:34 PM 31.8839 -88.2303 304° West 351 404 38,000  Level Memphis Center
Sat 07:27:36 PM 31.9386 -88.3278 303° West 351 404 38,000  Level Memphis Center
Sat 07:28:37 PM 31.9936 -88.4233 304° West 351 404 38,000  Level Memphis Center
Sat 07:29:38 PM 32.0475 -88.5181 304° West 351 404 38,000  Level Memphis Center
Sat 07:30:40 PM 32.1022 -88.6142 304° West 351 404 38,000  Level Memphis Center
Sat 07:31:41 PM 32.1558 -88.7117 303° West 353 406 38,000  Level Memphis Center
Sat 07:32:43 PM 32.2217 -88.8278 304° West 354 407 38,000  Level Memphis Center
Sat 07:33:45 PM 32.2764 -88.9228 304° West 354 407 38,000  Level Memphis Center
Sat 07:34:46 PM 32.3297 -89.0189 303° West 354 407 38,000  Level Memphis Center
Sat 07:35:48 PM 32.3828 -89.1144 303° West 354 407 38,000  Level Memphis Center
Sat 07:36:49 PM 32.4364 -89.2114 303° West 354 407 38,000  Level Memphis Center
Sat 07:37:50 PM 32.4892 -89.3067 303° West 353 406 38,000  Level Memphis Center
Sat 07:38:52 PM 32.5414 -89.4011 303° West 350 403 38,000  Level Memphis Center
Sat 07:39:53 PM 32.6039 -89.5133 303° West 345 397 38,000  Level Memphis Center
Sat 07:40:55 PM 32.6550 -89.6069 303° West 342 394 38,000  Level Memphis Center
Sat 07:41:56 PM 32.7064 -89.7006 303° West 341 392 38,000  Level Memphis Center
Sat 07:42:58 PM 32.7581 -89.7958 303° West 341 392 38,000  Level Memphis Center
Sat 07:43:59 PM 32.8108 -89.8931 303° West 342 394 38,000  Level Memphis Center
Sat 07:45:01 PM 32.8642 -89.9908 303° West 343 395 38,000  Level Memphis Center
Sat 07:46:02 PM 32.9178 -90.0892 303° West 347 399 38,000  Level Memphis Center
Sat 07:47:04 PM 32.9706 -90.1842 304° West 347 399 38,000  Level Memphis Center
Sat 07:48:05 PM 33.0228 -90.2808 303° West 347 399 38,000  Level Memphis Center
Sat 07:49:07 PM 33.0747 -90.3761 303° West 347 399 38,000  Level Memphis Center
Sat 07:50:08 PM 33.1358 -90.4911 302° West 346 398 38,000  Level Memphis Center
Sat 07:51:10 PM 33.1878 -90.5883 303° West 346 398 38,000  Level Memphis Center
Sat 07:52:11 PM 33.2389 -90.6831 303° West 346 398 38,000  Level Memphis Center
Sat 07:53:12 PM 33.2908 -90.7792 303° West 346 398 38,000  Level Memphis Center
Sat 07:54:14 PM 33.3431 -90.8778 302° West 349 402 38,000  Level Memphis Center
Sat 07:55:16 PM 33.3947 -90.9758 302° West 350 403 38,000  Level Memphis Center
Sat 07:56:17 PM 33.4586 -91.0944 303° West 352 405 38,000  Level Memphis Center
Sat 07:57:19 PM 33.5111 -91.1944 302° West 354 407 38,000  Level Memphis Center
Sat 07:58:20 PM 33.5644 -91.2964 302° West 357 411 38,000 293 Level Memphis Center
Sat 07:59:22 PM 33.6172 -91.3969 302° West 357 411 38,600 634 Climbing Memphis Center
Sat 08:00:23 PM 33.6717 -91.4997 302° West 361 415 39,300 639 Climbing Memphis Center
Sat 08:01:24 PM 33.7258 -91.6042 302° West 366 421 39,900 341 Climbing Memphis Center
Sat 08:02:26 PM 33.7878 -91.7217 302° West 375 432 40,000 49 Climbing Memphis Center
Sat 08:03:27 PM 33.8458 -91.8311 303° West 382 440 40,000  Level Memphis Center
Sat 08:04:29 PM 33.9036 -91.9422 302° West 388 447 40,000  Level Memphis Center
Sat 08:05:30 PM 33.9608 -92.0544 302° West 392 451 40,000  Level Memphis Center
Sat 08:06:32 PM 34.0183 -92.1661 302° West 392 451 40,000  Level Memphis Center
Sat 08:07:33 PM 34.0811 -92.2894 302° West 392 451 40,000  Level Memphis Center
Sat 08:08:34 PM 34.1381 -92.4025 301° West 393 452 40,000  Level Memphis Center
Sat 08:09:36 PM 34.1981 -92.5150 303° West 395 455 40,000  Level Memphis Center
Sat 08:10:37 PM 34.2547 -92.6297 301° West 398 458 40,000  Level Memphis Center
Sat 08:11:38 PM 34.3169 -92.7531 301° West 398 458 40,000  Level Memphis Center
Sat 08:12:39 PM 34.3806 -92.8794 301° West 396 456 40,000  Level Memphis Center
Sat 08:13:41 PM 34.4392 -92.9956 301° West 397 457 40,000  Level Memphis Center
Sat 08:14:42 PM 34.4967 -93.1100 301° West 397 457 40,000  Level Memphis Center
Sat 08:15:43 PM 34.5547 -93.2267 301° West 398 458 40,000  Level Memphis Center
Sat 08:16:45 PM 34.6133 -93.3431 301° West 399 459 40,000  Level Memphis Center
Sat 08:17:46 PM 34.6714 -93.4606 301° West 402 463 40,000  Level Memphis Center
Sat 08:18:47 PM 34.7300 -93.5803 301° West 403 464 40,000  Level Memphis Center
Sat 08:19:48 PM 34.7881 -93.6986 301° West 404 465 40,000  Level Memphis Center
Sat 08:20:50 PM 34.8494 -93.8208 301° West 404 465 40,000  Level Memphis Center
Sat 08:21:51 PM 34.9078 -93.9392 301° West 406 467 40,000  Level Memphis Center
Sat 08:22:52 PM 34.9650 -94.0608 300° West 409 471 40,000  Level Memphis Center
Sat 08:23:53 PM 35.0250 -94.1806 301° West 412 474 40,000  Level Memphis Center
Sat 08:24:54 PM 35.0822 -94.3050 299° West 417 480 40,000  Level Memphis Center
Sat 08:25:55 PM 35.1531 -94.4472 301° West 417 480 40,000  Level Memphis Center
Sat 08:26:57 PM 35.2122 -94.5700 301° West 417 480 40,000  Level Memphis Center
Sat 08:27:58 PM 35.2672 -94.6844 301° West 416 479 40,000  Level Memphis Center
Sat 08:28:59 PM 35.3239 -94.8039 300° West 411 473 40,000  Level Memphis Center
Sat 08:30:00 PM 35.3800 -94.9228 300° West 406 467 40,000  Level Memphis Center
Sat 08:31:01 PM 35.4372 -95.0414 301° West 403 464 40,000  Level Memphis Center
Sat 08:32:02 PM 35.4931 -95.1600 300° West 403 464 40,000  Level Memphis Center
Sat 08:33:33 PM 35.5828 -95.3464 301° West 401 461 40,000  Level Fort Worth Center
Sat 08:34:30 PM 35.6364 -95.4672 299° West 397 457 40,000  Level Kansas City Center
Sat 08:35:34 PM 35.6922 -95.5858 300° West 397 457 40,000  Level Kansas City Center
Sat 08:36:34 PM 35.7486 -95.7056 300° West 398 458 40,000  Level Kansas City Center
Sat 08:37:38 PM 35.8044 -95.8250 300° West 398 458 40,000  Level Kansas City Center
Sat 08:38:38 PM 35.8600 -95.9456 300° West 399 459 40,000  Level Kansas City Center
Sat 08:39:38 PM 35.9164 -96.0675 300° West 402 463 40,000  Level Kansas City Center
Sat 08:40:42 PM 35.9717 -96.1892 299° West 403 464 40,000  Level Kansas City Center
Sat 08:41:42 PM 36.0286 -96.3133 300° West 406 467 40,000  Level Kansas City Center
Sat 08:42:44 PM 36.0842 -96.4339 300° West 406 467 40,000  Level Kansas City Center
Sat 08:43:44 PM 36.1394 -96.5564 299° West 406 467 40,000  Level Kansas City Center
Sat 08:44:45 PM 36.1953 -96.6789 299° West 406 467 40,000  Level Kansas City Center
Sat 08:45:47 PM 36.2606 -96.8228 299° West 407 468 40,000  Level Kansas City Center
Sat 08:46:48 PM 36.3150 -96.9450 299° West 407 468 40,000  Level Kansas City Center
Sat 08:47:52 PM 36.3697 -97.0683 299° West 407 468 40,000  Level Kansas City Center
Sat 08:48:53 PM 36.4253 -97.1925 299° West 409 471 40,000  Level Kansas City Center
Sat 08:49:55 PM 36.4803 -97.3164 299° West 410 472 40,000  Level Kansas City Center
Sat 08:50:56 PM 36.5344 -97.4417 298° West 411 473 40,000  Level Kansas City Center
Sat 08:51:57 PM 36.5894 -97.5672 299° West 413 475 40,000  Level Kansas City Center
Sat 08:52:59 PM 36.6442 -97.6894 299° West 409 471 40,000  Level Kansas City Center
Sat 08:54:00 PM 36.7081 -97.8367 298° West 408 470 40,000  Level Kansas City Center
Sat 08:55:02 PM 36.7617 -97.9622 298° West 409 471 40,000  Level Kansas City Center
Sat 08:56:02 PM 36.8158 -98.0867 299° West 409 471 40,000  Level Kansas City Center
Sat 08:57:04 PM 36.8725 -98.2186 298° West 409 471 40,000  Level Kansas City Center
Sat 08:58:06 PM 36.9278 -98.3464 298° West 410 472 40,000  Level Kansas City Center
Sat 08:59:07 PM 36.9781 -98.4672 298° West 413 475 40,000  Level Kansas City Center
Sat 09:00:08 PM 37.0450 -98.6219 298° West 417 480 40,000  Level Kansas City Center
Sat 09:01:10 PM 37.0936 -98.7369 298° West 420 483 40,000  Level Kansas City Center
Sat 09:02:09 PM 37.1483 -98.8675 298° West 421 484 40,000  Level Kansas City Center
Sat 09:03:11 PM 37.2036 -98.9978 298° West 421 484 40,000  Level Kansas City Center
Sat 09:04:14 PM 37.2642 -99.1428 298° West 421 484 40,000  Level Kansas City Center
Sat 09:05:16 PM 37.3236 -99.2853 298° West 421 484 40,000  Level Kansas City Center
Sat 09:06:15 PM 37.3772 -99.4158 297° West 421 484 40,000  Level Kansas City Center
Sat 09:07:17 PM 37.4289 -99.5411 297° West 421 484 40,000  Level Kansas City Center
Sat 09:08:19 PM 37.4900 -99.6858 298° West 421 484 40,000  Level Kansas City Center
Sat 09:09:19 PM 37.5414 -99.8119 297° West 421 484 40,000  Level Kansas City Center
Sat 09:10:21 PM 37.5936 -99.9372 298° West 421 484 40,000  Level Kansas City Center
Sat 09:11:22 PM 37.6536 -100.0861 297° West 422 486 40,000  Level Kansas City Center
Sat 09:12:24 PM 37.7047 -100.2119 297° West 423 487 40,000  Level Kansas City Center
Sat 09:13:25 PM 37.7642 -100.3603 297° West 424 488 40,000  Level Kansas City Center
Sat 09:14:27 PM 37.8164 -100.4878 297° West 426 490 40,000  Level Kansas City Center
Sat 09:15:27 PM 37.8753 -100.6372 297° West 428 493 40,000  Level Kansas City Center
Sat 09:16:28 PM 37.9264 -100.7636 297° West 428 493 40,000  Level Kansas City Center
Sat 09:17:29 PM 37.9758 -100.8906 296° West 427 491 40,000  Level Kansas City Center
Sat 09:18:31 PM 38.0353 -101.0411 297° West 427 491 40,000  Level Kansas City Center
Sat 09:19:31 PM 38.0864 -101.1708 297° West 431 496 40,000  Level Kansas City Center
Sat 09:20:35 PM 38.1442 -101.3225 296° West 430 495 40,000  Level Kansas City Center
Sat 09:21:41 PM 38.2056 -101.4706 298° West 428 493 40,000 -422 Level Denver Center
Sat 09:22:43 PM 38.2689 -101.5931 303° West 431 496 39,100 -919 Descending Denver Center
Sat 09:23:45 PM 38.3411 -101.7394 302° West 434 499 38,100 -976 Descending Denver Center
Sat 09:24:46 PM 38.4033 -101.8636 303° West 435 501 37,100 -976 Descending Denver Center
Sat 09:25:48 PM 38.4764 -102.0122 302° West 436 502 36,100 -976 Descending Denver Center
Sat 09:26:49 PM 38.5361 -102.1392 301° West 437 503 35,100 -976 Descending Denver Center
Sat 09:27:51 PM 38.6100 -102.2842 303° West 437 503 34,100 -537 Descending Denver Center
Sat 09:28:52 PM 38.6706 -102.4111 301° West 438 504 34,000 -49 Descending Denver Center
Sat 09:29:54 PM 38.7314 -102.5353 302° West 431 496 34,000  Level Denver Center
Sat 09:30:55 PM 38.8042 -102.6867 302° West 444 511 34,000  Level Denver Center
Sat 09:31:57 PM 38.8717 -102.8292 301° West 445 512 34,000  Level Denver Center
Sat 09:32:58 PM 38.9369 -102.9642 302° West 445 512 34,000 -639 Level Denver Center
Sat 09:33:59 PM 39.0022 -103.0983 302° West 445 512 32,700 -2,146 Descending Denver Center
Sat 09:35:01 PM 39.0647 -103.2306 301° West 434 499 29,600 -2,732 Descending Denver Center
Sat 09:36:02 PM 39.1278 -103.3622 302° West 436 502 27,100 -2,390 Descending Denver Center
Sat 09:37:04 PM 39.1861 -103.4861 301° West 411 473 24,700 -2,293 Descending Denver Center
Sat 09:38:05 PM 39.2403 -103.6044 301° West 391 450 22,400 -2,146 Descending Denver Center
Sat 09:39:07 PM 39.2944 -103.7167 302° West 373 429 20,300 -2,195 Descending Denver Center
Sat 09:40:08 PM 39.3528 -103.8469 300° West 356 410 17,900 -1,623 Descending Denver Center
Sat 09:41:09 PM 39.3961 -103.9497 299° West 337 388 17,000 -1,171 Descending Denver Center
Sat 09:42:11 PM 39.4022 -104.0583 274° West 306 352 15,500 -1,512 Descending Denver Center
Sat 09:43:12 PM 39.4067 -104.1650 273° West 296 341 13,900 -1,220 Descending Denver Center
Sat 09:44:14 PM 39.4111 -104.2736 273° West 279 321 13,000 -927 Descending Denver Center
Sat 09:45:15 PM 39.4286 -104.3556 285° West 243 280 12,000 -927 Descending Denver Center
Sat 09:46:17 PM 39.4644 -104.4206 306° West 225 259 11,100 -889 Descending Denver Center
Sat 09:47:30 PM 39.5036 -104.4986 303° West 213 245 10,000 -889 Descending Denver Center
Sat 09:48:32 PM 39.5458 -104.5428 321° Northwest 202 232 9,100 -1,268 Descending Denver Center
Sat 09:49:33 PM 39.6044 -104.5711 340° North 211 243 7,400 -1,024 Descending Denver Center
Sat 09:50:35 PM 39.6622 -104.5994 339° North 221 254 7,000 -195 Descending Denver Center
Sat 09:51:36 PM 39.7058 -104.6208 339° North 165 190 7,000  Level Denver Center
Sat 09:52:38 PM 39.7506 -104.6425 340° North 159 183 7,000 -341 Level Denver Center
Sat 09:53:39 PM 39.7881 -104.6422 360° North 133 153 6,300 -683 Descending Denver Center
Sat 09:54:41 PM 39.8242 -104.6414 North 132 152 5,600 -677 Descending Denver Center
Sat 09:56:00 PM 39.8500 -104.6667 North  Level FlightAware Approximate
Sat 10:03:00 PM 39.8617 -104.6732 North  Level Estimated
Sat 10:04:00 PM 39.8617 -104.6732 North  Level Estimated
Sat 10:05:00 PM 39.8617 -104.6732 North  Level Estimated

Login

Don't have an account? Register now (free) for customized features, flight alerts, and more!